createdAt,value
2022-12-07T00:00:09.954Z,100648.22
2022-12-07T00:05:12.580Z,100642.28
2022-12-07T00:10:15.215Z,100644.03
2022-12-07T00:15:17.930Z,100642.16
2022-12-07T00:20:20.479Z,100618.78
2022-12-07T00:25:23.023Z,100636.91
2022-12-07T00:30:25.669Z,100640.69
2022-12-07T00:35:28.198Z,100625.91
2022-12-07T00:40:30.732Z,100637.66
2022-12-07T00:45:33.263Z,100623.50
2022-12-07T00:50:36.436Z,100634.53
2022-12-07T00:55:39.148Z,100611.09
2022-12-07T01:00:43.267Z,100640.44
2022-12-07T01:05:54.236Z,100638.53
2022-12-07T01:11:05.974Z,100614.81
2022-12-07T01:16:10.736Z,100631.16
2022-12-07T01:21:18.228Z,100628.09
2022-12-07T01:26:23.385Z,100621.97
2022-12-07T01:31:27.964Z,100615.94
2022-12-07T01:36:36.345Z,100615.94
2022-12-07T01:41:41.592Z,100597.03
2022-12-07T01:46:49.236Z,100600.41
2022-12-07T01:51:56.025Z,100603.03
2022-12-07T01:56:59.959Z,100599.28
2022-12-07T02:02:05.640Z,100604.59
2022-12-07T02:07:09.047Z,100591.94
2022-12-07T02:12:11.674Z,100605.59
2022-12-07T02:17:42.813Z,100603.94
2022-12-07T02:22:57.252Z,100607.00
2022-12-07T02:28:22.627Z,100607.50
2022-12-07T02:33:51.891Z,100601.22
2022-12-07T02:39:18.379Z,100564.97
2022-12-07T02:44:24.372Z,100583.28
2022-12-07T02:49:29.724Z,100575.88
2022-12-07T02:54:32.530Z,100586.03
2022-12-07T03:00:11.369Z,100591.59
2022-12-07T03:05:34.594Z,100581.66
2022-12-07T03:10:57.295Z,100554.09
2022-12-07T03:16:20.779Z,100587.19
2022-12-07T03:21:37.342Z,100575.63
2022-12-07T03:26:45.908Z,100592.59
2022-12-07T03:32:02.243Z,100585.19
2022-12-07T03:37:12.603Z,100585.56
2022-12-07T03:42:15.207Z,100581.19
2022-12-07T03:47:49.743Z,100580.44
2022-12-07T03:53:15.408Z,100569.03
2022-12-07T03:58:21.875Z,100567.03
2022-12-07T04:03:24.512Z,100565.13
2022-12-07T04:08:27.334Z,100554.59
2022-12-07T04:13:29.878Z,100562.50
2022-12-07T04:18:32.448Z,100558.59
2022-12-07T04:23:35.131Z,100551.25
2022-12-07T04:28:37.842Z,100544.47
2022-12-07T04:33:40.499Z,100537.44
2022-12-07T04:38:43.671Z,100547.59
2022-12-07T04:43:46.206Z,100522.81
2022-12-07T04:48:48.769Z,100535.91
2022-12-07T04:53:59.076Z,100546.22
2022-12-07T04:59:03.043Z,100533.91
2022-12-07T05:04:06.523Z,100545.72
2022-12-07T05:09:09.056Z,100538.81
2022-12-07T05:14:13.544Z,100538.44
2022-12-07T05:19:16.578Z,100558.50
2022-12-07T05:24:19.212Z,100528.00
2022-12-07T05:29:21.752Z,100510.13
2022-12-07T05:34:24.387Z,100507.59
2022-12-07T05:39:27.738Z,100540.44
2022-12-07T05:44:30.575Z,100533.16
2022-12-07T05:49:33.715Z,100536.38
2022-12-07T05:54:36.410Z,100522.56
2022-12-07T05:59:39.729Z,100533.34
2022-12-07T06:04:45.977Z,100540.47
2022-12-07T06:09:48.696Z,100534.34
2022-12-07T06:14:51.745Z,100536.06
2022-12-07T06:19:54.374Z,100539.03
2022-12-07T06:24:56.938Z,100531.47
2022-12-07T06:30:00.515Z,100537.81
2022-12-07T06:35:04.881Z,100530.28
2022-12-07T06:40:08.043Z,100531.78
2022-12-07T06:45:11.220Z,100509.16
2022-12-07T06:50:13.848Z,100531.16
2022-12-07T06:55:16.487Z,100526.84
2022-12-07T07:00:22.248Z,100511.84
2022-12-07T07:05:25.939Z,100525.84
2022-12-07T07:10:28.527Z,100531.44
2022-12-07T07:15:31.554Z,100530.78
2022-12-07T07:20:34.389Z,100528.44
2022-12-07T07:25:37.051Z,100514.53
2022-12-07T07:30:39.736Z,100518.59
2022-12-07T07:35:42.563Z,100516.97
2022-12-07T07:40:45.422Z,100498.47
2022-12-07T07:45:48.203Z,100497.50
2022-12-07T07:50:51.475Z,100464.34
2022-12-07T07:55:55.155Z,100505.41
2022-12-07T08:01:05.072Z,100439.97
2022-12-07T08:06:07.915Z,100483.63
2022-12-07T08:11:11.026Z,100493.00
2022-12-07T08:16:15.430Z,100502.53
2022-12-07T08:21:18.115Z,100495.88
2022-12-07T08:26:20.674Z,100498.63
2022-12-07T08:31:23.678Z,100492.47
2022-12-07T08:36:26.287Z,100451.97
2022-12-07T08:41:28.851Z,100449.78
2022-12-07T08:46:44.179Z,100478.38
2022-12-07T08:51:47.977Z,100473.56
2022-12-07T08:56:58.760Z,100441.28
2022-12-07T09:02:02.147Z,100467.50
2022-12-07T09:07:05.377Z,100462.69
2022-12-07T09:12:08.375Z,100451.09
2022-12-07T09:17:13.066Z,100451.16
2022-12-07T09:22:15.688Z,100452.50
2022-12-07T09:27:19.824Z,100449.66
2022-12-07T09:32:22.860Z,100448.31
2022-12-07T09:37:25.494Z,100440.53
2022-12-07T09:42:33.947Z,100435.53
2022-12-07T09:47:36.746Z,100435.66
2022-12-07T09:52:40.551Z,100426.78
2022-12-07T09:57:44.371Z,100427.97
2022-12-07T10:02:57.292Z,100421.41
2022-12-07T10:07:59.900Z,100417.88
2022-12-07T10:13:08.344Z,100413.03
2022-12-07T10:18:30.742Z,100406.16
2022-12-07T10:23:33.273Z,100419.63
2022-12-07T10:28:41.860Z,100392.97
2022-12-07T10:33:59.784Z,100396.56
2022-12-07T10:39:19.058Z,100401.19
2022-12-07T10:44:44.291Z,100387.16
2022-12-07T10:49:52.949Z,100378.91
2022-12-07T10:55:07.709Z,100374.94
2022-12-07T11:00:10.558Z,100374.72
2022-12-07T11:05:28.918Z,100371.78
2022-12-07T11:10:53.189Z,100369.69
2022-12-07T11:16:30.790Z,100365.03
2022-12-07T11:21:58.461Z,100349.69
2022-12-07T11:27:24.820Z,100353.53
2022-12-07T11:33:02.348Z,100349.34
2022-12-07T11:38:15.895Z,100332.09
2022-12-07T11:43:27.078Z,100302.69
2022-12-07T11:49:12.534Z,100329.03
2022-12-07T11:54:25.314Z,100326.91
2022-12-07T11:59:51.563Z,100322.41
2022-12-07T12:05:14.475Z,100316.09
2022-12-07T12:10:31.802Z,100319.97
2022-12-07T12:15:47.318Z,100324.16
2022-12-07T12:20:59.704Z,100279.13
2022-12-07T12:26:09.836Z,100316.63
2022-12-07T12:31:21.625Z,100311.06
2022-12-07T12:36:24.328Z,100309.34
2022-12-07T12:41:39.161Z,100317.34
2022-12-07T12:47:00.804Z,100309.13
2022-12-07T12:52:15.480Z,100312.53
2022-12-07T12:57:28.861Z,100306.06
2022-12-07T13:02:31.426Z,100291.31
2022-12-07T13:07:50.945Z,100294.13
2022-12-07T13:13:16.112Z,100295.84
2022-12-07T13:18:30.375Z,100305.78
2022-12-07T13:23:44.855Z,100299.31
2022-12-07T13:29:11.491Z,100289.78
2022-12-07T13:34:38.321Z,100276.09
2022-12-07T13:39:52.518Z,100288.41
2022-12-07T13:44:56.398Z,100253.31
2022-12-07T13:49:59.781Z,100279.56
2022-12-07T13:55:05.596Z,100289.00
2022-12-07T14:00:17.676Z,100281.13
2022-12-07T14:05:35.743Z,100276.50
2022-12-07T14:10:54.864Z,100269.59
2022-12-07T14:15:59.349Z,100276.00
2022-12-07T14:21:17.996Z,100275.47
2022-12-07T14:26:21.841Z,100260.91
2022-12-07T14:31:30.497Z,100283.31
2022-12-07T14:36:33.597Z,100278.31
2022-12-07T14:41:51.471Z,100236.91
2022-12-07T14:57:43.232Z,100246.38
2022-12-07T15:02:47.663Z,100270.97
2022-12-07T15:07:51.385Z,100267.50
2022-12-07T15:12:54.456Z,100264.97
2022-12-07T15:17:59.143Z,100241.41
2022-12-07T15:23:01.807Z,100253.81
2022-12-07T15:28:04.557Z,100245.66
2022-12-07T15:33:07.251Z,100235.97
2022-12-07T15:38:09.814Z,100236.59
2022-12-07T15:43:32.290Z,100193.09
2022-12-07T15:48:34.823Z,100222.22
2022-12-07T15:53:37.489Z,100217.59
2022-12-07T15:58:39.990Z,100213.13
2022-12-07T16:03:43.391Z,100210.06
2022-12-07T16:08:47.344Z,100207.34
2022-12-07T16:13:50.259Z,100216.00
2022-12-07T16:18:52.858Z,100211.50
2022-12-07T16:23:58.423Z,100190.63
2022-12-07T16:29:01.221Z,100205.50
2022-12-07T16:34:04.380Z,100204.97
2022-12-07T16:39:07.643Z,100178.59
2022-12-07T16:44:13.290Z,100187.78
2022-12-07T16:49:17.210Z,100200.34
2022-12-07T16:54:19.843Z,100196.34
2022-12-07T16:59:22.408Z,100185.84
2022-12-07T17:04:25.073Z,100197.72
2022-12-07T17:09:28.654Z,100194.69
2022-12-07T17:14:49.818Z,100179.72
2022-12-07T17:19:53.081Z,100193.06
2022-12-07T17:24:55.718Z,100169.69
2022-12-07T17:29:58.322Z,100174.38
2022-12-07T17:35:02.200Z,100167.06
2022-12-07T17:40:06.774Z,100166.63
2022-12-07T17:45:11.216Z,100164.66
2022-12-07T17:50:13.899Z,100142.78
2022-12-07T17:55:17.436Z,100113.28
2022-12-07T18:00:20.170Z,100136.78
2022-12-07T18:05:22.880Z,100172.44
2022-12-07T18:10:25.396Z,100167.09
2022-12-07T18:15:27.906Z,100164.47
2022-12-07T18:20:30.557Z,100161.97
2022-12-07T18:25:33.885Z,100160.09
2022-12-07T18:31:13.123Z,100154.19
2022-12-07T18:36:01.010Z,100136.19
2022-12-07T18:41:04.422Z,100144.16
2022-12-07T18:46:12.247Z,100118.16
2022-12-07T18:51:16.338Z,100117.59
2022-12-07T18:56:21.370Z,100121.66
2022-12-07T19:01:24.154Z,100121.13
2022-12-07T19:06:27.681Z,100109.97
2022-12-07T19:11:50.963Z,100121.91
2022-12-07T19:16:56.423Z,100103.34
2022-12-07T19:21:59.142Z,100109.53
2022-12-07T19:27:02.414Z,100094.69
2022-12-07T19:32:06.263Z,100076.66
2022-12-07T19:37:11.552Z,100113.59
2022-12-07T19:42:14.836Z,100113.94
2022-12-07T19:47:17.724Z,100120.59
2022-12-07T19:52:20.279Z,100107.81
2022-12-07T19:57:22.859Z,100096.66
2022-12-07T20:02:25.622Z,100110.84
2022-12-07T20:07:28.280Z,100106.16
2022-12-07T20:12:49.644Z,100124.41
2022-12-07T20:17:52.189Z,100114.22
2022-12-07T20:22:54.791Z,100101.25
2022-12-07T20:27:57.434Z,100097.31
2022-12-07T20:33:00.155Z,100084.63
2022-12-07T20:38:02.857Z,100101.56
2022-12-07T20:43:05.900Z,100085.22
2022-12-07T20:48:08.534Z,100080.94
2022-12-07T20:53:11.123Z,100074.41
2022-12-07T20:58:13.713Z,100078.03
2022-12-07T21:03:16.247Z,100081.25
2022-12-07T21:08:18.882Z,100069.81
2022-12-07T21:13:21.463Z,100072.44
2022-12-07T21:18:24.042Z,100069.81
2022-12-07T21:23:26.617Z,100058.69
2022-12-07T21:28:30.694Z,100050.28
2022-12-07T21:33:34.723Z,100048.34
2022-12-07T21:38:38.189Z,100053.03
2022-12-07T21:43:41.639Z,100061.00
2022-12-07T21:48:50.346Z,100052.50
2022-12-07T21:53:54.426Z,100020.50
2022-12-07T21:59:21.200Z,100030.22
2022-12-07T22:04:26.173Z,100035.97
2022-12-07T22:09:30.547Z,100034.13
2022-12-07T22:14:52.086Z,100035.56
2022-12-07T22:19:54.596Z,100000.53
2022-12-07T22:24:57.215Z,100025.91
2022-12-07T22:29:59.724Z,100030.28
2022-12-07T22:35:02.981Z,100035.19
2022-12-07T22:40:07.394Z,100027.09
2022-12-07T22:45:10.047Z,100016.91
2022-12-07T22:50:12.622Z,100009.34
2022-12-07T22:55:15.211Z,100017.25
2022-12-07T23:00:18.660Z,100011.91
2022-12-07T23:05:21.186Z,100009.31
2022-12-07T23:10:23.815Z,99996.81
2022-12-07T23:15:26.422Z,99997.69
2022-12-07T23:20:29.228Z,99984.72
2022-12-07T23:25:33.204Z,99988.41
2022-12-07T23:30:35.744Z,99984.47
2022-12-07T23:35:38.295Z,99982.44
2022-12-07T23:40:40.794Z,99968.56
2022-12-07T23:45:46.442Z,99933.59
2022-12-07T23:50:48.972Z,99969.97
2022-12-07T23:55:51.482Z,99960.41
